sensor_id;sensor_type;location;lat;lon;timestamp;temperature;humidity
9482;DHT22;4779;48.062;11.672;2023-09-19T08:34:21;19.40;99.90
9482;DHT22;4779;48.062;11.672;2023-09-19T08:36:50;19.70;99.90
9482;DHT22;4779;48.062;11.672;2023-09-19T08:39:19;19.80;99.90
9482;DHT22;4779;48.062;11.672;2023-09-19T08:41:46;19.80;99.90
9482;DHT22;4779;48.062;11.672;2023-09-19T08:44:13;19.70;99.90
9482;DHT22;4779;48.062;11.672;2023-09-19T08:46:41;19.80;99.90
9482;DHT22;4779;48.062;11.672;2023-09-19T08:49:14;19.70;99.90
9482;DHT22;4779;48.062;11.672;2023-09-19T08:51:51;19.80;99.90
9482;DHT22;4779;48.062;11.672;2023-09-19T08:54:28;19.80;99.90
9482;DHT22;4779;48.062;11.672;2023-09-19T08:57:01;19.80;99.90
9482;DHT22;4779;48.062;11.672;2023-09-19T08:59:34;20.10;99.90
9482;DHT22;4779;48.062;11.672;2023-09-19T09:02:03;20.10;99.90
9482;DHT22;4779;48.062;11.672;2023-09-19T09:04:30;20.00;99.90
9482;DHT22;4779;48.062;11.672;2023-09-19T09:06:57;19.90;99.90
9482;DHT22;4779;48.062;11.672;2023-09-19T09:09:28;19.70;99.90
9482;DHT22;4779;48.062;11.672;2023-09-19T09:11:55;19.90;99.90
9482;DHT22;4779;48.062;11.672;2023-09-19T09:14:24;20.10;99.90
9482;DHT22;4779;48.062;11.672;2023-09-19T09:16:51;20.20;99.90
9482;DHT22;4779;48.062;11.672;2023-09-19T09:19:22;20.40;99.90
9482;DHT22;4779;48.062;11.672;2023-09-19T09:21:50;20.60;99.90
9482;DHT22;4779;48.062;11.672;2023-09-19T09:24:28;20.80;99.90
9482;DHT22;4779;48.062;11.672;2023-09-19T09:26:55;20.80;99.90
9482;DHT22;4779;48.062;11.672;2023-09-19T09:29:41;20.60;99.90
9482;DHT22;4779;48.062;11.672;2023-09-19T09:32:22;20.20;99.90
9482;DHT22;4779;48.062;11.672;2023-09-19T09:34:51;19.90;99.90
9482;DHT22;4779;48.062;11.672;2023-09-19T09:37:19;19.70;99.90
9482;DHT22;4779;48.062;11.672;2023-09-19T09:39:52;19.60;99.90
9482;DHT22;4779;48.062;11.672;2023-09-19T09:42:32;19.60;99.90
9482;DHT22;4779;48.062;11.672;2023-09-19T09:45:15;20.10;99.90
9482;DHT22;4779;48.062;11.672;2023-09-19T09:47:46;20.60;99.90
9482;DHT22;4779;48.062;11.672;2023-09-19T09:50:29;21.30;99.90
9482;DHT22;4779;48.062;11.672;2023-09-19T09:53:19;21.50;99.90
9482;DHT22;4779;48.062;11.672;2023-09-19T09:56:01;21.60;99.90
9482;DHT22;4779;48.062;11.672;2023-09-19T09:58:32;22.00;99.90
9482;DHT22;4779;48.062;11.672;2023-09-19T10:00:59;22.50;99.90
9482;DHT22;4779;48.062;11.672;2023-09-19T10:03:35;22.70;99.90
9482;DHT22;4779;48.062;11.672;2023-09-19T10:06:07;22.60;99.90
9482;DHT22;4779;48.062;11.672;2023-09-19T10:09:04;22.30;99.90
9482;DHT22;4779;48.062;11.672;2023-09-19T10:11:41;21.90;99.90
9482;DHT22;4779;48.062;11.672;2023-09-19T10:14:11;21.50;99.90
9482;DHT22;4779;48.062;11.672;2023-09-19T10:16:43;21.70;99.90
9482;DHT22;4779;48.062;11.672;2023-09-19T10:19:15;22.30;99.90
9482;DHT22;4779;48.062;11.672;2023-09-19T10:21:43;23.10;99.90
9482;DHT22;4779;48.062;11.672;2023-09-19T10:24:13;23.80;99.90
9482;DHT22;4779;48.062;11.672;2023-09-19T10:26:44;24.40;99.90
9482;DHT22;4779;48.062;11.672;2023-09-19T10:29:13;24.90;99.90
9482;DHT22;4779;48.062;11.672;2023-09-19T10:31:42;24.60;99.90
9482;DHT22;4779;48.062;11.672;2023-09-19T10:34:14;24.60;99.90
9482;DHT22;4779;48.062;11.672;2023-09-19T10:36:45;24.60;99.90
9482;DHT22;4779;48.062;11.672;2023-09-19T10:39:15;24.40;99.90
9482;DHT22;4779;48.062;11.672;2023-09-19T10:41:50;24.40;99.90
9482;DHT22;4779;48.062;11.672;2023-09-19T10:44:23;24.70;99.90
9482;DHT22;4779;48.062;11.672;2023-09-19T10:46:51;25.10;99.90
9482;DHT22;4779;48.062;11.672;2023-09-19T10:49:19;25.30;99.90
9482;DHT22;4779;48.062;11.672;2023-09-19T10:51:49;25.70;99.90
9482;DHT22;4779;48.062;11.672;2023-09-19T10:54:18;26.00;99.90
9482;DHT22;4779;48.062;11.672;2023-09-19T10:56:50;25.90;99.90
9482;DHT22;4779;48.062;11.672;2023-09-19T10:59:19;25.60;99.90
9482;DHT22;4779;48.062;11.672;2023-09-19T11:01:47;25.60;99.90
9482;DHT22;4779;48.062;11.672;2023-09-19T11:04:24;25.90;99.90
9482;DHT22;4779;48.062;11.672;2023-09-19T11:07:05;25.70;99.90
9482;DHT22;4779;48.062;11.672;2023-09-19T11:09:54;26.00;99.90
9482;DHT22;4779;48.062;11.672;2023-09-19T11:12:49;25.80;99.90
9482;DHT22;4779;48.062;11.672;2023-09-19T11:18:53;24.70;99.90
9482;DHT22;4779;48.062;11.672;2023-09-19T11:21:51;24.00;99.90
9482;DHT22;4779;48.062;11.672;2023-09-19T11:24:30;23.60;99.90
9482;DHT22;4779;48.062;11.672;2023-09-19T11:27:12;23.90;99.90
9482;DHT22;4779;48.062;11.672;2023-09-19T11:29:44;24.30;99.90
9482;DHT22;4779;48.062;11.672;2023-09-19T11:32:11;24.50;99.90
9482;DHT22;4779;48.062;11.672;2023-09-19T11:34:49;24.20;99.90
9482;DHT22;4779;48.062;11.672;2023-09-19T11:40:33;24.20;99.90
9482;DHT22;4779;48.062;11.672;2023-09-19T11:43:30;24.80;99.90
9482;DHT22;4779;48.062;11.672;2023-09-19T11:46:18;25.20;99.90
9482;DHT22;4779;48.062;11.672;2023-09-19T11:48:48;25.50;99.90
9482;DHT22;4779;48.062;11.672;2023-09-19T11:51:19;25.80;99.90
9482;DHT22;4779;48.062;11.672;2023-09-19T11:53:50;25.80;99.90
9482;DHT22;4779;48.062;11.672;2023-09-19T11:56:19;25.70;99.90
9482;DHT22;4779;48.062;11.672;2023-09-19T11:58:49;25.40;99.90
9482;DHT22;4779;48.062;11.672;2023-09-19T12:01:23;25.40;99.90
9482;DHT22;4779;48.062;11.672;2023-09-19T12:03:54;24.60;99.90
9482;DHT22;4779;48.062;11.672;2023-09-19T12:06:23;24.40;99.90
9482;DHT22;4779;48.062;11.672;2023-09-19T12:08:50;24.50;99.90
9482;DHT22;4779;48.062;11.672;2023-09-19T12:11:20;24.30;99.90
9482;DHT22;4779;48.062;11.672;2023-09-19T12:13:49;24.20;99.90
9482;DHT22;4779;48.062;11.672;2023-09-19T12:16:17;24.00;99.90
9482;DHT22;4779;48.062;11.672;2023-09-19T12:18:49;24.40;99.90
9482;DHT22;4779;48.062;11.672;2023-09-19T12:21:38;24.70;99.90
9482;DHT22;4779;48.062;11.672;2023-09-19T12:24:09;25.00;99.90
9482;DHT22;4779;48.062;11.672;2023-09-19T12:26:42;25.20;99.90
9482;DHT22;4779;48.062;11.672;2023-09-19T12:29:15;25.20;99.90
9482;DHT22;4779;48.062;11.672;2023-09-19T12:31:51;25.20;99.90
9482;DHT22;4779;48.062;11.672;2023-09-19T12:34:23;25.00;99.90
9482;DHT22;4779;48.062;11.672;2023-09-19T12:37:07;25.00;99.90
9482;DHT22;4779;48.062;11.672;2023-09-19T12:39:39;25.00;99.90
9482;DHT22;4779;48.062;11.672;2023-09-19T12:42:09;25.20;99.90
9482;DHT22;4779;48.062;11.672;2023-09-19T12:44:37;25.30;99.90
9482;DHT22;4779;48.062;11.672;2023-09-19T12:47:14;25.30;99.90
9482;DHT22;4779;48.062;11.672;2023-09-19T12:50:06;25.20;99.90
9482;DHT22;4779;48.062;11.672;2023-09-19T12:52:39;25.40;99.90
9482;DHT22;4779;48.062;11.672;2023-09-19T12:55:07;25.40;99.90
9482;DHT22;4779;48.062;11.672;2023-09-19T12:57:35;25.50;99.90
9482;DHT22;4779;48.062;11.672;2023-09-19T13:00:03;25.40;99.90
9482;DHT22;4779;48.062;11.672;2023-09-19T13:02:31;25.30;99.90
9482;DHT22;4779;48.062;11.672;2023-09-19T13:04:58;25.50;99.90
9482;DHT22;4779;48.062;11.672;2023-09-19T13:07:45;25.70;99.90
9482;DHT22;4779;48.062;11.672;2023-09-19T13:10:13;25.70;99.90
9482;DHT22;4779;48.062;11.672;2023-09-19T13:12:43;25.50;99.90
9482;DHT22;4779;48.062;11.672;2023-09-19T13:15:14;25.60;99.90
9482;DHT22;4779;48.062;11.672;2023-09-19T13:17:46;25.60;99.90
9482;DHT22;4779;48.062;11.672;2023-09-19T13:20:24;25.60;99.90
9482;DHT22;4779;48.062;11.672;2023-09-19T13:22:55;25.70;99.90
9482;DHT22;4779;48.062;11.672;2023-09-19T13:25:26;25.60;99.90
9482;DHT22;4779;48.062;11.672;2023-09-19T13:27:56;25.50;99.90
9482;DHT22;4779;48.062;11.672;2023-09-19T13:30:24;25.60;99.90
9482;DHT22;4779;48.062;11.672;2023-09-19T13:32:52;25.50;99.90
9482;DHT22;4779;48.062;11.672;2023-09-19T13:35:19;25.50;99.90
9482;DHT22;4779;48.062;11.672;2023-09-19T13:37:48;25.40;99.90
9482;DHT22;4779;48.062;11.672;2023-09-19T13:40:18;25.20;99.90
9482;DHT22;4779;48.062;11.672;2023-09-19T13:42:45;25.20;99.90
9482;DHT22;4779;48.062;11.672;2023-09-19T13:45:13;25.20;99.90
9482;DHT22;4779;48.062;11.672;2023-09-19T13:47:43;25.20;99.90
9482;DHT22;4779;48.062;11.672;2023-09-19T13:50:10;25.20;99.90
9482;DHT22;4779;48.062;11.672;2023-09-19T13:52:37;25.40;99.90
9482;DHT22;4779;48.062;11.672;2023-09-19T13:55:04;25.30;99.90
9482;DHT22;4779;48.062;11.672;2023-09-19T13:57:34;25.30;99.90
9482;DHT22;4779;48.062;11.672;2023-09-19T14:00:01;25.20;99.90
9482;DHT22;4779;48.062;11.672;2023-09-19T14:02:28;25.40;99.90
9482;DHT22;4779;48.062;11.672;2023-09-19T14:04:55;25.20;99.90
9482;DHT22;4779;48.062;11.672;2023-09-19T14:07:23;25.20;99.90
9482;DHT22;4779;48.062;11.672;2023-09-19T14:09:51;25.30;99.90
9482;DHT22;4779;48.062;11.672;2023-09-19T14:12:18;25.30;99.90
9482;DHT22;4779;48.062;11.672;2023-09-19T14:14:46;25.30;99.90
9482;DHT22;4779;48.062;11.672;2023-09-19T14:17:16;24.90;99.90
9482;DHT22;4779;48.062;11.672;2023-09-19T14:19:44;24.40;99.90
9482;DHT22;4779;48.062;11.672;2023-09-19T14:22:11;24.30;99.90
9482;DHT22;4779;48.062;11.672;2023-09-19T14:24:39;24.00;99.90
9482;DHT22;4779;48.062;11.672;2023-09-19T14:27:07;23.90;99.90
9482;DHT22;4779;48.062;11.672;2023-09-19T14:29:34;23.90;99.90
9482;DHT22;4779;48.062;11.672;2023-09-19T14:32:04;24.20;99.90
9482;DHT22;4779;48.062;11.672;2023-09-19T14:34:31;24.50;99.90
9482;DHT22;4779;48.062;11.672;2023-09-19T14:36:58;24.80;99.90
9482;DHT22;4779;48.062;11.672;2023-09-19T14:39:25;25.00;99.90
9482;DHT22;4779;48.062;11.672;2023-09-19T14:41:53;25.00;99.90
9482;DHT22;4779;48.062;11.672;2023-09-19T14:44:20;25.10;99.90
9482;DHT22;4779;48.062;11.672;2023-09-19T14:46:47;25.10;99.90
9482;DHT22;4779;48.062;11.672;2023-09-19T14:49:16;25.00;99.90
9482;DHT22;4779;48.062;11.672;2023-09-19T14:51:43;25.00;99.90
9482;DHT22;4779;48.062;11.672;2023-09-19T14:54:10;25.10;99.90
9482;DHT22;4779;48.062;11.672;2023-09-19T14:56:37;25.00;99.90
9482;DHT22;4779;48.062;11.672;2023-09-19T14:59:05;24.80;99.90
9482;DHT22;4779;48.062;11.672;2023-09-19T15:01:32;24.60;99.90
9482;DHT22;4779;48.062;11.672;2023-09-19T15:03:59;24.50;99.90
9482;DHT22;4779;48.062;11.672;2023-09-19T15:06:28;24.50;99.90
9482;DHT22;4779;48.062;11.672;2023-09-19T15:08:55;24.50;99.90
9482;DHT22;4779;48.062;11.672;2023-09-19T15:11:23;24.40;99.90
9482;DHT22;4779;48.062;11.672;2023-09-19T15:13:51;24.30;99.90
9482;DHT22;4779;48.062;11.672;2023-09-19T15:16:19;24.10;99.90
9482;DHT22;4779;48.062;11.672;2023-09-19T15:18:47;23.90;99.90
9482;DHT22;4779;48.062;11.672;2023-09-19T15:21:14;23.90;99.90
9482;DHT22;4779;48.062;11.672;2023-09-19T15:23:43;23.90;99.90
9482;DHT22;4779;48.062;11.672;2023-09-19T15:26:12;23.90;99.90
9482;DHT22;4779;48.062;11.672;2023-09-19T15:28:40;23.80;99.90
9482;DHT22;4779;48.062;11.672;2023-09-19T15:31:08;23.80;99.90
9482;DHT22;4779;48.062;11.672;2023-09-19T15:33:35;23.70;99.90
9482;DHT22;4779;48.062;11.672;2023-09-19T15:36:04;23.60;99.90
9482;DHT22;4779;48.062;11.672;2023-09-19T15:38:32;23.50;99.90
9482;DHT22;4779;48.062;11.672;2023-09-19T15:41:20;23.40;99.90
9482;DHT22;4779;48.062;11.672;2023-09-19T15:43:47;23.40;99.90
9482;DHT22;4779;48.062;11.672;2023-09-19T15:46:14;23.20;99.90
9482;DHT22;4779;48.062;11.672;2023-09-19T15:48:41;23.10;99.90
9482;DHT22;4779;48.062;11.672;2023-09-19T15:51:09;23.00;99.90
9482;DHT22;4779;48.062;11.672;2023-09-19T15:53:43;22.80;99.90
9482;DHT22;4779;48.062;11.672;2023-09-19T15:56:11;22.70;99.90
9482;DHT22;4779;48.062;11.672;2023-09-19T15:58:40;22.50;99.90
9482;DHT22;4779;48.062;11.672;2023-09-19T16:01:08;22.20;99.90
9482;DHT22;4779;48.062;11.672;2023-09-19T16:03:35;22.20;99.90
9482;DHT22;4779;48.062;11.672;2023-09-19T16:06:08;22.10;99.90
9482;DHT22;4779;48.062;11.672;2023-09-19T16:08:38;22.00;99.90
9482;DHT22;4779;48.062;11.672;2023-09-19T16:11:05;21.90;99.90
9482;DHT22;4779;48.062;11.672;2023-09-19T16:13:32;21.70;99.90
9482;DHT22;4779;48.062;11.672;2023-09-19T16:16:00;21.70;99.90
9482;DHT22;4779;48.062;11.672;2023-09-19T16:18:27;21.60;99.90
9482;DHT22;4779;48.062;11.672;2023-09-19T16:21:01;21.40;99.90
9482;DHT22;4779;48.062;11.672;2023-09-19T16:23:28;21.40;99.90
9482;DHT22;4779;48.062;11.672;2023-09-19T16:26:03;21.40;99.90
9482;DHT22;4779;48.062;11.672;2023-09-19T16:28:32;21.20;99.90
9482;DHT22;4779;48.062;11.672;2023-09-19T16:31:01;21.20;99.90
9482;DHT22;4779;48.062;11.672;2023-09-19T16:33:29;21.10;99.90
9482;DHT22;4779;48.062;11.672;2023-09-19T16:35:58;21.00;99.90
9482;DHT22;4779;48.062;11.672;2023-09-19T16:38:26;21.10;99.90
9482;DHT22;4779;48.062;11.672;2023-09-19T16:40:55;21.00;99.90
9482;DHT22;4779;48.062;11.672;2023-09-19T16:43:24;21.00;99.90
9482;DHT22;4779;48.062;11.672;2023-09-19T16:45:54;20.80;99.90
9482;DHT22;4779;48.062;11.672;2023-09-19T16:48:22;20.90;99.90
9482;DHT22;4779;48.062;11.672;2023-09-19T16:50:49;20.90;99.90
9482;DHT22;4779;48.062;11.672;2023-09-19T16:53:17;20.80;99.90
9482;DHT22;4779;48.062;11.672;2023-09-19T16:55:44;20.60;99.90
9482;DHT22;4779;48.062;11.672;2023-09-19T16:58:12;20.60;99.90
9482;DHT22;4779;48.062;11.672;2023-09-19T17:00:39;20.60;99.90
9482;DHT22;4779;48.062;11.672;2023-09-19T17:03:09;20.60;99.90
9482;DHT22;4779;48.062;11.672;2023-09-19T17:05:38;20.50;99.90
9482;DHT22;4779;48.062;11.672;2023-09-19T17:08:06;20.40;99.90
9482;DHT22;4779;48.062;11.672;2023-09-19T17:10:33;20.30;99.90
9482;DHT22;4779;48.062;11.672;2023-09-19T17:13:00;20.20;99.90
9482;DHT22;4779;48.062;11.672;2023-09-19T17:15:28;20.10;99.90
9482;DHT22;4779;48.062;11.672;2023-09-19T17:17:57;20.10;99.90
9482;DHT22;4779;48.062;11.672;2023-09-19T17:20:25;20.10;99.90
9482;DHT22;4779;48.062;11.672;2023-09-19T17:22:54;20.00;99.90
9482;DHT22;4779;48.062;11.672;2023-09-19T17:25:21;20.00;99.90
9482;DHT22;4779;48.062;11.672;2023-09-19T17:27:50;19.90;99.90
9482;DHT22;4779;48.062;11.672;2023-09-19T17:30:17;19.80;99.90
9482;DHT22;4779;48.062;11.672;2023-09-19T17:32:45;19.80;99.90
9482;DHT22;4779;48.062;11.672;2023-09-19T17:35:13;19.70;99.90
9482;DHT22;4779;48.062;11.672;2023-09-19T17:37:43;19.60;99.90
9482;DHT22;4779;48.062;11.672;2023-09-19T17:40:12;19.60;99.90
9482;DHT22;4779;48.062;11.672;2023-09-19T17:42:39;19.60;99.90
9482;DHT22;4779;48.062;11.672;2023-09-19T17:45:09;19.40;99.90
9482;DHT22;4779;48.062;11.672;2023-09-19T17:47:40;19.30;99.90
9482;DHT22;4779;48.062;11.672;2023-09-19T17:50:08;19.30;99.90
9482;DHT22;4779;48.062;11.672;2023-09-19T17:52:38;19.20;99.90
9482;DHT22;4779;48.062;11.672;2023-09-19T17:55:06;19.20;99.90
9482;DHT22;4779;48.062;11.672;2023-09-19T17:57:35;19.10;99.90
9482;DHT22;4779;48.062;11.672;2023-09-19T18:00:06;19.00;99.90
9482;DHT22;4779;48.062;11.672;2023-09-19T18:02:40;18.90;99.90
9482;DHT22;4779;48.062;11.672;2023-09-19T18:05:07;18.90;99.90
9482;DHT22;4779;48.062;11.672;2023-09-19T18:07:42;18.90;99.90
9482;DHT22;4779;48.062;11.672;2023-09-19T18:10:10;18.80;99.90
9482;DHT22;4779;48.062;11.672;2023-09-19T18:12:40;18.80;99.90
9482;DHT22;4779;48.062;11.672;2023-09-19T18:15:08;18.80;99.90
9482;DHT22;4779;48.062;11.672;2023-09-19T18:17:35;18.80;99.90
9482;DHT22;4779;48.062;11.672;2023-09-19T18:20:05;18.70;99.90
9482;DHT22;4779;48.062;11.672;2023-09-19T18:22:35;18.60;99.90
9482;DHT22;4779;48.062;11.672;2023-09-19T18:25:03;18.70;99.90
9482;DHT22;4779;48.062;11.672;2023-09-19T18:27:33;18.60;99.90
9482;DHT22;4779;48.062;11.672;2023-09-19T18:30:02;18.50;99.90
9482;DHT22;4779;48.062;11.672;2023-09-19T18:32:29;18.50;99.90
9482;DHT22;4779;48.062;11.672;2023-09-19T18:34:56;18.50;99.90
9482;DHT22;4779;48.062;11.672;2023-09-19T18:37:23;18.40;99.90
9482;DHT22;4779;48.062;11.672;2023-09-19T18:39:52;18.40;99.90
9482;DHT22;4779;48.062;11.672;2023-09-19T18:42:19;18.40;99.90
9482;DHT22;4779;48.062;11.672;2023-09-19T18:44:46;18.30;99.90
9482;DHT22;4779;48.062;11.672;2023-09-19T18:47:19;18.20;99.90
9482;DHT22;4779;48.062;11.672;2023-09-19T18:49:48;18.20;99.90
9482;DHT22;4779;48.062;11.672;2023-09-19T18:52:15;18.20;99.90
9482;DHT22;4779;48.062;11.672;2023-09-19T18:54:42;18.10;99.90
9482;DHT22;4779;48.062;11.672;2023-09-19T18:57:10;18.10;99.90
9482;DHT22;4779;48.062;11.672;2023-09-19T18:59:38;18.00;99.90
9482;DHT22;4779;48.062;11.672;2023-09-19T19:02:05;18.00;99.90
9482;DHT22;4779;48.062;11.672;2023-09-19T19:04:37;17.90;99.90
9482;DHT22;4779;48.062;11.672;2023-09-19T19:07:05;18.00;99.90
9482;DHT22;4779;48.062;11.672;2023-09-19T19:09:36;17.90;99.90
9482;DHT22;4779;48.062;11.672;2023-09-19T19:12:04;17.90;99.90
9482;DHT22;4779;48.062;11.672;2023-09-19T19:14:31;17.80;99.90
9482;DHT22;4779;48.062;11.672;2023-09-19T19:16:58;17.80;99.90
9482;DHT22;4779;48.062;11.672;2023-09-19T19:19:25;17.70;99.90
9482;DHT22;4779;48.062;11.672;2023-09-19T19:21:54;17.70;99.90
9482;DHT22;4779;48.062;11.672;2023-09-19T19:24:21;17.60;99.90
9482;DHT22;4779;48.062;11.672;2023-09-19T19:26:51;17.60;99.90
9482;DHT22;4779;48.062;11.672;2023-09-19T19:29:18;17.60;99.90
9482;DHT22;4779;48.062;11.672;2023-09-19T19:31:46;17.60;99.90
9482;DHT22;4779;48.062;11.672;2023-09-19T19:34:15;17.50;99.90
9482;DHT22;4779;48.062;11.672;2023-09-19T19:36:42;17.50;99.90
9482;DHT22;4779;48.062;11.672;2023-09-19T19:39:11;17.40;99.90
9482;DHT22;4779;48.062;11.672;2023-09-19T19:41:41;17.40;99.90
9482;DHT22;4779;48.062;11.672;2023-09-19T19:44:09;17.40;99.90
9482;DHT22;4779;48.062;11.672;2023-09-19T19:46:36;17.40;99.90
9482;DHT22;4779;48.062;11.672;2023-09-19T19:49:04;17.30;99.90
9482;DHT22;4779;48.062;11.672;2023-09-19T19:51:33;17.30;99.90
9482;DHT22;4779;48.062;11.672;2023-09-19T19:54:01;17.30;99.90
9482;DHT22;4779;48.062;11.672;2023-09-19T19:56:31;17.20;99.90
9482;DHT22;4779;48.062;11.672;2023-09-19T19:58:59;17.10;99.90
9482;DHT22;4779;48.062;11.672;2023-09-19T20:01:26;17.10;99.90
9482;DHT22;4779;48.062;11.672;2023-09-19T20:03:54;17.10;99.90
9482;DHT22;4779;48.062;11.672;2023-09-19T20:06:21;17.10;99.90
9482;DHT22;4779;48.062;11.672;2023-09-19T20:08:49;17.00;99.90
9482;DHT22;4779;48.062;11.672;2023-09-19T20:11:17;17.00;99.90
9482;DHT22;4779;48.062;11.672;2023-09-19T20:13:46;17.00;99.90
9482;DHT22;4779;48.062;11.672;2023-09-19T20:16:13;17.00;99.90
9482;DHT22;4779;48.062;11.672;2023-09-19T20:18:40;17.00;99.90
9482;DHT22;4779;48.062;11.672;2023-09-19T20:21:08;16.90;99.90
9482;DHT22;4779;48.062;11.672;2023-09-19T20:23:39;16.90;99.90
9482;DHT22;4779;48.062;11.672;2023-09-19T20:26:07;16.90;99.90
9482;DHT22;4779;48.062;11.672;2023-09-19T20:28:36;16.90;99.90
9482;DHT22;4779;48.062;11.672;2023-09-19T20:31:09;16.80;99.90
9482;DHT22;4779;48.062;11.672;2023-09-19T20:33:37;16.80;99.90
9482;DHT22;4779;48.062;11.672;2023-09-19T20:36:04;16.80;99.90
9482;DHT22;4779;48.062;11.672;2023-09-19T20:38:33;16.70;99.90
9482;DHT22;4779;48.062;11.672;2023-09-19T20:41:00;16.80;99.90
9482;DHT22;4779;48.062;11.672;2023-09-19T20:43:28;16.70;99.90
9482;DHT22;4779;48.062;11.672;2023-09-19T20:45:56;16.70;99.90
9482;DHT22;4779;48.062;11.672;2023-09-19T20:48:24;16.60;99.90
9482;DHT22;4779;48.062;11.672;2023-09-19T20:50:51;16.60;99.90
9482;DHT22;4779;48.062;11.672;2023-09-19T20:53:19;16.60;99.90
9482;DHT22;4779;48.062;11.672;2023-09-19T20:55:46;16.60;99.90
9482;DHT22;4779;48.062;11.672;2023-09-19T20:58:13;16.60;99.90
9482;DHT22;4779;48.062;11.672;2023-09-19T21:00:40;16.60;99.90
9482;DHT22;4779;48.062;11.672;2023-09-19T21:03:08;16.50;99.90
9482;DHT22;4779;48.062;11.672;2023-09-19T21:05:40;16.50;99.90
9482;DHT22;4779;48.062;11.672;2023-09-19T21:08:07;16.40;99.90
9482;DHT22;4779;48.062;11.672;2023-09-19T21:10:34;16.40;99.90
9482;DHT22;4779;48.062;11.672;2023-09-19T21:13:02;16.30;99.90
9482;DHT22;4779;48.062;11.672;2023-09-19T21:15:30;16.40;99.90
9482;DHT22;4779;48.062;11.672;2023-09-19T21:17:57;16.40;99.90
9482;DHT22;4779;48.062;11.672;2023-09-19T21:20:24;16.40;99.90
9482;DHT22;4779;48.062;11.672;2023-09-19T21:22:53;16.30;99.90
9482;DHT22;4779;48.062;11.672;2023-09-19T21:25:22;16.30;99.90
9482;DHT22;4779;48.062;11.672;2023-09-19T21:27:49;16.20;99.90
9482;DHT22;4779;48.062;11.672;2023-09-19T21:30:16;16.20;99.90
9482;DHT22;4779;48.062;11.672;2023-09-19T21:32:43;16.30;99.90
9482;DHT22;4779;48.062;11.672;2023-09-19T21:35:11;16.20;99.90
9482;DHT22;4779;48.062;11.672;2023-09-19T21:37:38;16.20;99.90
9482;DHT22;4779;48.062;11.672;2023-09-19T21:40:08;16.20;99.90
9482;DHT22;4779;48.062;11.672;2023-09-19T21:42:35;16.10;99.90
9482;DHT22;4779;48.062;11.672;2023-09-19T21:45:03;16.10;99.90
9482;DHT22;4779;48.062;11.672;2023-09-19T21:47:31;16.20;99.90
9482;DHT22;4779;48.062;11.672;2023-09-19T21:49:58;16.10;99.90
9482;DHT22;4779;48.062;11.672;2023-09-19T21:52:25;16.10;99.90
9482;DHT22;4779;48.062;11.672;2023-09-19T21:54:53;16.10;99.90
9482;DHT22;4779;48.062;11.672;2023-09-19T21:57:21;16.00;99.90
9482;DHT22;4779;48.062;11.672;2023-09-19T21:59:48;16.00;99.90
9482;DHT22;4779;48.062;11.672;2023-09-19T22:02:15;16.00;99.90
9482;DHT22;4779;48.062;11.672;2023-09-19T22:04:42;16.00;99.90
9482;DHT22;4779;48.062;11.672;2023-09-19T22:07:09;16.00;99.90
9482;DHT22;4779;48.062;11.672;2023-09-19T22:09:36;15.90;99.90
9482;DHT22;4779;48.062;11.672;2023-09-19T22:12:03;16.00;99.90
9482;DHT22;4779;48.062;11.672;2023-09-19T22:14:33;15.90;99.90
9482;DHT22;4779;48.062;11.672;2023-09-19T22:17:01;15.90;99.90
9482;DHT22;4779;48.062;11.672;2023-09-19T22:24:24;15.70;99.90
